Latest Weather Observations for Bougainville Reef

IDQ60801

Issued at 5:35 pm EST Saturday 25 October 2014 (issued every 30 minutes, with the page automatically refreshed every 10 minutes)

About weather observations | Map of weather stations | Latest weather observations for QLD | Other Formats
Station Details ID: 200840 Name: BOUGAINVILLE REEF Lat: -15.49 Lon: 147.12 Height: 0.0 m
Data from the previous 72 hours. | See also: Recent months for locations in Queensland
Date/Time
EST
Temp
°C
App
Temp
°C
Dew
Point
Rel
Hum
%
Delta-T
°C
Wind Press
QNH
hPa
Press
MSL
hPa
Rain
since 9 am
mm
Dir
 
Spd
km/h
Gust
km/h
Spd
kts
Gust
kts
25/05:30pm 25.2 - - - - E 32 41 17 22 1015.0 - -
25/05:00pm 24.9 - - - - E 35 41 19 22 1014.6 1014.3 -
25/04:30pm 25.0 - - - - E 32 39 17 21 1014.2 - -
25/04:00pm 25.0 - - - - E 32 39 17 21 1014.1 1013.9 -
25/03:30pm 24.9 - - - - E 30 37 16 20 1014.1 - -
25/03:00pm 24.7 - - - - SE 32 39 17 21 1014.3 1014.3 -
25/02:30pm 24.8 - - - - SE 28 37 15 20 1014.5 - -
25/02:00pm 24.0 - - - - SSE 32 39 17 21 1014.8 1014.8 -
25/01:30pm 23.8 - - - - SE 41 50 22 27 1015.0 - -
25/01:00pm 23.9 - - - - ESE 41 43 22 23 1015.2 1015.3 -
25/12:30pm 24.0 - - - - SE 33 59 18 32 1015.6 - -
25/12:00pm 24.6 - - - - SE 33 43 18 23 1016.0 1016.0 -
25/11:30am 24.5 - - - - E 32 43 17 23 1016.4 - -
25/11:00am 25.2 - - - - E 32 41 17 22 1016.9 1016.9 -
25/10:30am 25.3 - - - - ESE 35 46 19 25 1017.1 - -
25/10:00am 25.6 - - - - E 35 43 19 23 1017.2 1017.2 -
25/09:30am 25.5 - - - - ESE 35 43 19 23 1017.4 - -
25/09:00am 25.4 - - - - ESE 35 43 19 23 1017.6 1017.5 -
25/08:30am 25.4 - - - - ESE 37 46 20 25 1017.5 - -
25/08:00am 25.4 - - - - ESE 44 48 24 26 1017.3 1017.1 -
25/07:30am 25.2 - - - - ESE 43 50 23 27 1017.0 - -
25/07:00am 25.4 - - - - ESE 43 46 23 25 1016.6 1016.4 -
25/06:30am 24.9 - - - - E 39 50 21 27 1016.3 - -
25/06:10am 25.5 - - - - ESE 39 43 21 23 1016.0 - -
25/06:00am 25.2 - - - - E 39 52 21 28 1015.9 1015.7 -
25/05:30am 24.8 - - - - E 41 54 22 29 1015.6 - -
25/05:29am 25.1 - - - - E 39 52 21 28 1015.6 - -
25/05:24am 24.9 - - - - NE 41 52 22 28 1015.5 - -
25/05:13am 24.7 - - - - E 41 52 22 28 1015.5 - -
25/05:08am 24.7 - - - - NNE 46 52 25 28 1015.4 - -
25/05:05am 24.9 - - - - E 33 56 18 30 1015.4 - -
25/05:02am 24.8 - - - - NNE 43 56 23 30 1015.4 - -
25/05:00am 24.6 - - - - E 44 56 24 30 1015.4 1015.2 -
25/04:54am 24.8 - - - - ESE 44 57 24 31 1015.3 - -
25/04:30am 24.5 - - - - E 41 50 22 27 1015.2 - -
25/04:00am 24.7 - - - - E 39 46 21 25 1015.0 1014.9 -
25/03:30am 24.8 - - - - ESE 44 56 24 30 1014.8 - -
25/03:00am 24.4 - - - - E 44 52 24 28 1014.7 1014.7 -
25/02:51am 24.5 - - - - E 44 52 24 28 1014.7 - -
25/02:30am 24.3 - - - - ESE 41 52 22 28 1014.8 - -
25/02:28am 24.4 - - - - ESE 43 52 23 28 1014.8 - -
25/02:26am 24.2 - - - - E 46 52 25 28 1014.7 - -
25/02:24am 24.3 - - - - SE 39 52 21 28 1014.8 - -
25/02:09am 23.9 - - - - E 39 46 21 25 1014.9 - -
25/02:07am 24.0 - - - - SE 37 48 20 26 1015.0 - -
25/02:06am 24.1 - - - - E 37 48 20 26 1015.0 - -
25/02:00am 23.7 - - - - SE 41 50 22 27 1015.0 1015.0 -
25/01:59am 23.7 - - - - ESE 39 50 21 27 1015.0 - -
25/01:56am 23.6 - - - - SE 37 50 20 27 1015.0 - -
25/01:53am 23.6 - - - - ENE 46 50 25 27 1015.0 - -
25/01:49am 23.8 - - - - ESE 39 52 21 28 1015.1 - -
25/01:44am 23.2 - - - - ENE 41 54 22 29 1015.2 - -
25/01:37am 23.6 - - - - SE 41 54 22 29 1015.3 - -
25/01:30am 24.2 - - - - E 37 46 20 25 1015.5 - -
25/01:29am 24.1 - - - - ENE 37 46 20 25 1015.5 - -
25/01:17am 24.0 - - - - E 41 50 22 27 1015.6 - -
25/01:15am 24.4 - - - - SE 43 50 23 27 1015.6 - -
25/01:12am 24.2 - - - - ENE 43 50 23 27 1015.5 - -
25/01:10am 24.5 - - - - ESE 37 48 20 26 1015.6 - -
25/01:07am 24.2 - - - - ENE 39 48 21 26 1015.6 - -
25/01:00am 24.0 - - - - SE 43 56 23 30 1015.7 1015.7 -
25/12:59am 24.1 - - - - ESE 46 56 25 30 1015.7 - -
25/12:50am 24.0 - - - - SE 43 54 23 29 1015.8 - -
25/12:49am 24.2 - - - - E 44 54 24 29 1015.9 - -
25/12:45am 24.0 - - - - ENE 46 54 25 29 1015.9 - -
25/12:30am 23.6 - - - - ESE 46 57 25 31 1016.1 - -
25/12:18am 24.1 - - - - SE 41 59 22 32 1016.1 - -
25/12:15am 23.9 - - - - E 35 57 19 31 1016.2 - -
25/12:00am 23.7 - - - - ESE 35 41 19 22 1016.6 1016.6 -
 
Date/Time
EST
Temp
°C
App
Temp
°C
Dew
Point
Rel
Hum
%
Delta-T
°C
Wind Press
QNH
hPa
Press
MSL
hPa
Rain
since 9 am
mm
Dir
 
Spd
km/h
Gust
km/h
Spd
kts
Gust
kts
24/11:30pm 22.0 - - - - E 32 50 17 27 1017.0 - -
24/11:25pm 21.5 - - - - E 35 57 19 31 1017.1 - -
24/11:20pm 22.4 - - - - ESE 46 57 25 31 1017.2 - -
24/11:19pm 22.6 - - - - E 37 57 20 31 1017.2 - -
24/11:15pm 23.1 - - - - ENE 35 44 19 24 1017.2 - -
24/11:03pm 22.0 - - - - ESE 41 59 22 32 1017.3 - -
24/11:00pm 23.4 - - - - ESE 46 59 25 32 1017.4 1017.2 -
24/10:38pm 24.8 - - - - E 33 46 18 25 1017.3 - -
24/10:31pm 24.5 - - - - SSE 37 46 20 25 1017.3 - -
24/10:30pm 24.9 - - - - ESE 35 50 19 27 1017.3 - -
24/10:29pm 24.9 - - - - E 35 50 19 27 1017.3 - -
24/10:28pm 24.9 - - - - NE 37 50 20 27 1017.4 - -
24/10:07pm 24.7 - - - - ESE 39 52 21 28 1017.5 - -
24/10:05pm 24.7 - - - - NE 44 54 24 29 1017.5 - -
24/10:00pm 24.7 - - - - ESE 39 54 21 29 1017.5 1017.4 -
24/09:30pm 24.8 - - - - SE 41 50 22 27 1017.3 - -
24/09:00pm 24.6 - - - - E 50 54 27 29 1016.9 1016.8 -
24/08:59pm 24.6 - - - - SE 41 54 22 29 1017.0 - -
24/08:55pm 24.7 - - - - E 43 57 23 31 1016.9 - -
24/08:52pm 24.7 - - - - SE 43 57 23 31 1017.0 - -
24/08:50pm 24.6 - - - - E 50 57 27 31 1016.9 - -
24/08:48pm 24.8 - - - - SSE 41 52 22 28 1017.0 - -
24/08:30pm 24.8 - - - - ESE 43 54 23 29 1016.8 - -
24/08:14pm 24.5 - - - - ESE 39 59 21 32 1016.7 - -
24/08:10pm 24.3 - - - - ENE 43 59 23 32 1016.6 - -
24/08:01pm 24.5 - - - - SE 33 52 18 28 1016.5 - -
24/08:00pm 23.8 - - - - E 39 50 21 27 1016.5 1016.3 -
24/07:56pm 24.3 - - - - SE 32 50 17 27 1016.4 - -
24/07:54pm 24.3 - - - - SE 28 46 15 25 1016.5 - -
24/07:49pm 23.9 - - - - E 37 48 20 26 1016.5 - -
24/07:43pm 24.8 - - - - SSE 28 46 15 25 1016.4 - -
24/07:30pm 24.8 - - - - ESE 28 44 15 24 1016.3 - -
24/07:19pm 24.9 - - - - SE 37 50 20 27 1016.2 - -
24/07:15pm 24.9 - - - - E 32 50 17 27 1016.2 - -
24/07:00pm 24.8 - - - - SSE 30 48 16 26 1016.1 1016.0 -
24/06:30pm 24.8 - - - - ENE 28 46 15 25 1016.0 - -
24/06:18pm 24.7 - - - - SE 28 46 15 25 1015.9 - -
24/06:00pm 24.9 - - - - SE 35 43 19 23 1015.7 1015.5 -
24/05:34pm 24.9 - - - - SE 28 46 15 25 1015.4 - -
24/05:30pm 24.8 - - - - SE 32 46 17 25 1015.4 - -
24/05:00pm 24.9 - - - - SE 32 44 17 24 1015.0 1014.8 -
24/04:30pm 24.7 - - - - SE 35 50 19 27 1014.7 - -
24/04:18pm 24.9 - - - - SSE 37 52 20 28 1014.6 - -
24/04:16pm 24.9 - - - - ESE 37 52 20 28 1014.6 - -
24/04:13pm 24.7 - - - - NNE 33 52 18 28 1014.6 - -
24/04:00pm 24.7 - - - - SE 33 46 18 25 1014.5 1014.4 -
24/03:30pm 24.8 - - - - SE 32 52 17 28 1014.5 - -
24/03:27pm 24.8 - - - - SE 32 52 17 28 1014.5 - -
24/03:10pm 25.0 - - - - SSE 37 48 20 26 1014.6 - -
24/03:08pm 24.7 - - - - ENE 37 46 20 25 1014.6 - -
24/03:00pm 24.6 - - - - SE 32 50 17 27 1014.6 1014.5 -
24/02:51pm 24.7 - - - - SE 32 50 17 27 1014.6 - -
24/02:30pm 24.8 - - - - SE 28 44 15 24 1014.8 - -
24/02:00pm 24.7 - - - - SSE 32 43 17 23 1014.9 1014.9 -
24/01:30pm 24.8 - - - - SE 33 41 18 22 1015.2 - -
24/01:00pm 24.8 - - - - SE 30 41 16 22 1015.5 1015.5 -
24/12:37pm 24.7 - - - - SE 28 46 15 25 1015.9 - -
24/12:30pm 24.9 - - - - SE 28 39 15 21 1016.0 - -
24/12:00pm 24.7 - - - - SE 33 41 18 22 1016.5 1016.6 -
24/11:30am 24.6 - - - - SE 35 44 19 24 1016.9 - -
24/11:00am 24.9 - - - - ESE 35 44 19 24 1017.2 1017.2 -
24/10:30am 24.9 - - - - ESE 33 43 18 23 1017.5 - -
24/10:27am 24.8 - - - - ESE 35 43 19 23 1017.5 - -
24/10:25am 24.9 - - - - NNE 37 43 20 23 1017.5 - -
24/10:00am 25.0 - - - - ESE 35 43 19 23 1017.6 1017.6 -
24/09:30am 24.8 - - - - E 35 44 19 24 1017.7 - -
24/09:00am 24.8 - - - - E 33 43 18 23 1017.8 1017.6 -
24/08:30am 24.8 - - - - SSE 33 46 18 25 1017.7 - -
24/08:00am 24.9 - - - - E 35 44 19 24 1017.6 1017.3 -
24/07:46am 24.8 - - - - E 33 44 18 24 1017.4 - -
24/07:37am 24.5 - - - - NE 37 44 20 24 1017.3 - -
24/07:35am 24.8 - - - - SE 33 44 18 24 1017.2 - -
24/07:30am 25.0 - - - - ENE 37 44 20 24 1017.2 - -
24/07:22am 24.7 - - - - ENE 35 46 19 25 1017.2 - -
24/07:00am 24.9 - - - - E 37 48 20 26 1016.8 1016.6 -
24/06:30am 24.7 - - - - E 33 50 18 27 1016.5 - -
24/06:28am 24.7 - - - - ENE 32 50 17 27 1016.4 - -
24/06:00am 24.5 - - - - ESE 41 50 22 27 1016.0 1015.9 -
24/05:30am 24.6 - - - - ESE 43 52 23 28 1015.7 - -
24/05:00am 24.5 - - - - ESE 39 48 21 26 1015.4 1015.2 -
24/04:46am 24.5 - - - - ESE 44 50 24 27 1015.2 - -
24/04:43am 24.4 - - - - E 39 46 21 25 1015.2 - -
24/04:42am 24.5 - - - - N 39 48 21 26 1015.2 - -
24/04:41am 24.6 - - - - NNW 41 48 22 26 1015.2 - -
24/04:30am 24.3 - - - - ESE 39 46 21 25 1015.2 - -
24/04:00am 24.0 - - - - ESE 39 54 21 29 1014.9 1014.8 -
24/03:46am 24.0 - - - - ESE 43 46 23 25 1014.9 - -
24/03:38am 24.3 - - - - E 39 48 21 26 1014.8 - -
24/03:30am 24.5 - - - - NE 35 46 19 25 1014.8 - -
24/03:25am 24.4 - - - - NE 37 46 20 25 1014.8 - -
24/03:14am 24.3 - - - - E 35 44 19 24 1014.9 - -
24/03:09am 24.2 - - - - NE 37 44 20 24 1014.9 - -
24/03:07am 24.6 - - - - E 32 43 17 23 1014.9 - -
24/03:02am 24.2 - - - - NE 37 44 20 24 1014.9 - -
24/03:00am 24.5 - - - - ENE 33 44 18 24 1014.9 1014.8 -
24/02:55am 24.3 - - - - E 37 44 20 24 1014.9 - -
24/02:50am 24.5 - - - - ENE 33 43 18 23 1014.9 - -
24/02:30am 24.5 - - - - ESE 37 43 20 23 1015.1 - -
24/02:27am 24.5 - - - - E 37 43 20 23 1015.2 - -
24/02:25am 24.5 - - - - NE 37 43 20 23 1015.2 - -
24/02:00am 24.3 - - - - ESE 37 43 20 23 1015.6 1015.6 -
24/01:55am 24.4 - - - - ESE 39 48 21 26 1015.7 - -
24/01:51am 24.4 - - - - ENE 39 48 21 26 1015.7 - -
24/01:46am 24.5 - - - - SE 37 48 20 26 1015.8 - -
24/01:30am 24.5 - - - - E 39 46 21 25 1015.9 - -
24/01:28am 24.4 - - - - NNE 39 46 21 25 1015.9 - -
24/01:06am 24.3 - - - - E 37 44 20 24 1016.1 - -
24/01:04am 24.5 - - - - NE 37 44 20 24 1016.1 - -
24/01:00am 24.3 - - - - E 35 44 19 24 1016.1 1016.2 -
24/12:30am 24.4 - - - - E 35 44 19 24 1016.4 - -
24/12:07am 24.5 - - - - E 37 46 20 25 1016.8 - -
24/12:01am 24.6 - - - - ENE 43 46 23 25 1016.8 - -
24/12:00am 24.7 - - - - ESE 39 46 21 25 1016.8 1016.9 -
 
Date/Time
EST
Temp
°C
App
Temp
°C
Dew
Point
Rel
Hum
%
Delta-T
°C
Wind Press
QNH
hPa
Press
MSL
hPa
Rain
since 9 am
mm
Dir
 
Spd
km/h
Gust
km/h
Spd
kts
Gust
kts
23/11:57pm 24.4 - - - - E 35 43 19 23 1016.9 - -
23/11:54pm 24.4 - - - - ENE 37 44 20 24 1016.9 - -
23/11:30pm 24.5 - - - - ESE 37 48 20 26 1017.1 - -
23/11:13pm 24.5 - - - - E 37 48 20 26 1017.1 - -
23/11:11pm 24.5 - - - - NE 41 48 22 26 1017.1 - -
23/11:00pm 24.5 - - - - ESE 39 48 21 26 1017.2 1017.2 -
23/10:30pm 24.6 - - - - ESE 41 48 22 26 1017.3 - -
23/10:27pm 24.6 - - - - E 41 48 22 26 1017.3 - -
23/10:25pm 24.6 - - - - ENE 43 48 23 26 1017.4 - -
23/10:00pm 24.6 - - - - E 41 48 22 26 1017.3 1017.1 -
23/09:30pm 24.8 - - - - E 41 50 22 27 1017.2 - -
23/09:00pm 24.6 - - - - ESE 39 50 21 27 1017.1 1016.8 -
23/08:30pm 24.7 - - - - E 37 44 20 24 1016.7 - -
23/08:21pm 24.6 - - - - ESE 37 46 20 25 1016.6 - -
23/08:16pm 24.8 - - - - E 41 50 22 27 1016.5 - -
23/08:06pm 24.8 - - - - ESE 33 46 18 25 1016.6 - -
23/08:03pm 24.6 - - - - NE 37 46 20 25 1016.5 - -
23/08:00pm 24.6 - - - - ESE 35 48 19 26 1016.5 1016.4 -
23/07:40pm 24.7 - - - - ESE 33 46 18 25 1016.4 - -
23/07:38pm 24.8 - - - - ENE 39 46 21 25 1016.3 - -
23/07:33pm 24.7 - - - - E 37 46 20 25 1016.4 - -
23/07:30pm 24.7 - - - - NE 39 46 21 25 1016.3 - -
23/07:22pm 24.8 - - - - NE 39 46 21 25 1016.2 - -
23/07:20pm 24.6 - - - - E 35 46 19 25 1016.2 - -
23/07:18pm 24.8 - - - - NE 37 46 20 25 1016.2 - -
23/07:00pm 24.7 - - - - E 35 44 19 24 1016.0 1015.7 -
23/06:57pm 24.8 - - - - E 33 44 18 24 1015.9 - -
23/06:52pm 24.8 - - - - NE 37 46 20 25 1015.8 - -
23/06:40pm 24.9 - - - - E 33 46 18 25 1015.8 - -
23/06:38pm 24.7 - - - - ENE 37 46 20 25 1015.7 - -
23/06:37pm 24.7 - - - - E 37 46 20 25 1015.7 - -
23/06:34pm 24.8 - - - - NE 43 46 23 25 1015.7 - -
23/06:30pm 24.7 - - - - E 35 48 19 26 1015.7 - -
23/06:23pm 24.7 - - - - ENE 41 50 22 27 1015.6 - -
23/06:00pm 24.8 - - - - SSE 30 50 16 27 1015.4 1015.1 -
23/05:54pm 24.8 - - - - E 37 50 20 27 1015.3 - -
23/05:49pm 24.6 - - - - SE 32 52 17 28 1015.2 - -
23/05:41pm 24.7 - - - - ESE 41 46 22 25 1015.2 - -
23/05:31pm 24.8 - - - - SSE 37 46 20 25 1014.9 - -
23/05:30pm 24.8 - - - - E 28 46 15 25 1014.9 - -
23/05:29pm 25.0 - - - - E 26 46 14 25 1014.9 - -
23/05:23pm 24.9 - - - - SE 39 50 21 27 1014.9 - -
23/05:17pm 24.8 - - - - ESE 39 50 21 27 1014.8 - -
23/05:12pm 24.9 - - - - SSE 33 50 18 27 1014.8 - -
23/05:06pm 24.8 - - - - ESE 39 50 21 27 1014.7 - -
23/05:00pm 24.8 - - - - SE 39 54 21 29 1014.6 1014.2 -
23/04:55pm 24.8 - - - - ENE 33 54 18 29 1014.5 - -
23/04:49pm 24.9 - - - - SE 39 52 21 28 1014.3 - -
23/04:47pm 24.8 - - - - E 32 52 17 28 1014.3 - -
23/04:40pm 24.8 - - - - SE 37 50 20 27 1014.3 - -
23/04:35pm 24.9 - - - - ENE 35 50 19 27 1014.2 - -
23/04:30pm 24.8 - - - - SE 39 46 21 25 1014.1 - -
23/04:28pm 24.9 - - - - ESE 39 46 21 25 1014.2 - -
23/04:26pm 24.7 - - - - NE 33 48 18 26 1014.1 - -
23/04:22pm 24.8 - - - - SE 37 48 20 26 1014.1 - -
23/04:19pm 24.7 - - - - E 37 50 20 27 1014.1 - -
23/04:12pm 24.9 - - - - SE 39 50 21 27 1013.9 - -
23/04:10pm 24.8 - - - - E 39 50 21 27 1013.9 - -
23/04:00pm 24.8 - - - - SE 41 50 22 27 1013.9 1013.8 -
23/03:30pm 24.9 - - - - SE 30 44 16 24 1013.8 - -
23/03:05pm 25.0 - - - - SE 30 50 16 27 1013.9 - -
23/03:00pm 24.8 - - - - SE 35 50 19 27 1013.8 1013.8 -
23/02:32pm 24.9 - - - - E 35 48 19 26 1014.0 - -
23/02:31pm 24.9 - - - - ENE 37 48 20 26 1013.9 - -
23/02:30pm 24.9 - - - - SE 35 50 19 27 1013.9 - -
23/02:00pm 24.6 - - - - SE 32 44 17 24 1014.1 1014.2 -
23/01:49pm 24.8 - - - - ESE 35 50 19 27 1014.3 - -
23/01:44pm 24.7 - - - - ENE 41 50 22 27 1014.3 - -
23/01:42pm 24.7 - - - - SE 37 50 20 27 1014.3 - -
23/01:30pm 24.6 - - - - E 30 46 16 25 1014.4 - -
23/01:00pm 24.6 - - - - SE 35 46 19 25 1014.8 1014.8 -
23/12:30pm 24.7 - - - - SE 30 46 16 25 1015.3 - -
23/12:00pm 24.5 - - - - ENE 30 43 16 23 1015.9 1015.9 -
23/11:30am 24.8 - - - - SE 32 43 17 23 1016.2 - -
23/11:23am 24.6 - - - - ENE 32 41 17 22 1016.3 - -
23/11:14am 24.6 - - - - SE 37 48 20 26 1016.2 - -
23/11:12am 24.5 - - - - ENE 37 48 20 26 1016.3 - -
23/11:10am 24.6 - - - - SE 37 48 20 26 1016.3 - -
23/11:08am 24.6 - - - - NE 35 48 19 26 1016.3 - -
23/11:07am 24.5 - - - - ESE 37 48 20 26 1016.3 - -
23/11:05am 24.6 - - - - SE 37 48 20 26 1016.3 - -
23/11:00am 24.6 - - - - ESE 32 - 17 - - 1016.4 -
23/10:44am 24.4 - - - - ENE 35 44 19 24 1016.5 - -
23/10:34am 24.7 - - - - ESE 37 44 20 24 1016.5 - -
23/10:30am 24.4 - - - - E 35 44 19 24 1016.5 - -
23/10:28am 24.4 - - - - E 37 44 20 24 1016.5 - -
23/10:20am 24.6 - - - - SE 33 48 18 26 1016.5 - -
23/10:13am 24.5 - - - - E 37 43 20 23 1016.5 - -
23/10:00am 24.7 - - - - E 33 44 18 24 1016.6 1016.6 -
23/09:49am 24.7 - - - - E 33 50 18 27 1016.7 - -
23/09:38am 24.5 - - - - ESE 39 46 21 25 1016.7 - -
23/09:37am 24.5 - - - - SSE 37 44 20 24 1016.8 - -
23/09:30am 24.6 - - - - E 30 48 16 26 1016.8 - -
23/09:26am 24.5 - - - - SE 35 48 19 26 1016.8 - -
23/09:24am 24.5 - - - - E 41 48 22 26 1016.8 - -
23/09:05am 24.5 - - - - SE 32 48 17 26 1016.9 - -
23/09:03am 24.5 - - - - E 41 48 22 26 1016.9 - -
23/09:00am 24.8 - - - - SE 35 43 19 23 1016.9 1016.7 -
23/08:30am 24.4 - - - - SE 35 48 19 26 1016.7 - -
23/08:00am 24.8 - - - - SSE 30 41 16 22 1016.8 1016.7 -
23/07:30am 24.4 - - - - SE 33 41 18 22 1016.6 - -
23/07:00am 24.3 - - - - SE 35 46 19 25 1016.4 1016.1 -
23/06:30am 24.3 - - - - SE 32 41 17 22 1016.1 - -
23/06:00am 24.3 - - - - SE 33 46 18 25 1015.8 1015.7 -
23/05:30am 24.2 - - - - SSE 32 43 17 23 1015.6 - -
23/05:00am 24.0 - - - - SE 33 46 18 25 1015.3 1015.2 -
23/04:30am 24.0 - - - - ESE 33 43 18 23 1015.2 - -
23/04:00am 23.9 - - - - SE 33 46 18 25 1015.0 1015.0 -
23/03:30am 24.0 - - - - ESE 35 48 19 26 1014.9 - -
23/03:16am 24.3 - - - - ENE 33 44 18 24 1014.9 - -
23/03:12am 24.0 - - - - NE 37 44 20 24 1014.9 - -
23/03:04am 24.3 - - - - E 37 46 20 25 1014.9 - -
23/03:02am 24.2 - - - - NE 37 46 20 25 1014.9 - -
23/03:00am 24.2 - - - - ESE 32 46 17 25 1014.9 1014.9 -
23/02:57am 24.3 - - - - SE 37 46 20 25 1014.9 - -
23/02:30am 24.3 - - - - E 32 41 17 22 1015.0 - -
23/02:00am 24.5 - - - - E 32 43 17 23 1015.2 1015.3 -
23/01:32am 24.6 - - - - SE 35 44 19 24 1015.6 - -
23/01:30am 24.4 - - - - E 37 44 20 24 1015.6 - -
23/01:27am 24.3 - - - - E 39 44 21 24 1015.6 - -
23/01:18am 24.2 - - - - SE 33 44 18 24 1015.8 - -
23/01:00am 24.7 - - - - ESE 37 54 20 29 1016.0 1016.1 -
23/12:30am 24.6 - - - - E 37 46 20 25 1016.6 - -
23/12:13am 24.5 - - - - E 39 46 21 25 1016.7 - -
23/12:10am 24.5 - - - - SE 32 46 17 25 1016.8 - -
23/12:08am 24.6 - - - - ENE 39 46 21 25 1016.9 - -
23/12:00am 24.8 - - - - ESE 37 48 20 26 1016.9 1017.0 -
 
Date/Time
EST
Temp
°C
App
Temp
°C
Dew
Point
Rel
Hum
%
Delta-T
°C
Wind Press
QNH
hPa
Press
MSL
hPa
Rain
since 9 am
mm
Dir
 
Spd
km/h
Gust
km/h
Spd
kts
Gust
kts
22/11:48pm 24.5 - - - - ESE 37 50 20 27 1017.1 - -
22/11:46pm 24.6 - - - - ENE 41 50 22 27 1017.1 - -
22/11:30pm 24.5 - - - - E 41 48 22 26 1017.3 - -
22/11:28pm 24.5 - - - - E 41 48 22 26 1017.4 - -
22/11:19pm 24.6 - - - - ESE 39 48 21 26 1017.5 - -
22/11:18pm 24.7 - - - - NE 37 46 20 25 1017.5 - -
22/11:17pm 24.9 - - - - NNE 39 46 21 25 1017.5 - -
22/11:13pm 24.7 - - - - ENE 39 46 21 25 1017.5 - -
22/11:07pm 24.7 - - - - E 32 48 17 26 1017.7 - -
22/11:03pm 24.7 - - - - NE 41 48 22 26 1017.7 - -
22/11:00pm 24.9 - - - - E 39 48 21 26 1017.7 1017.7 -
22/10:30pm 24.9 - - - - E 43 52 23 28 1017.8 - -
22/10:25pm 24.7 - - - - E 37 48 20 26 1017.9 - -
22/10:10pm 25.1 - - - - ENE 35 46 19 25 1018.1 - -
22/10:08pm 24.9 - - - - NNE 39 46 21 25 1018.1 - -
22/10:05pm 24.8 - - - - SE 33 46 18 25 1018.1 - -
22/10:00pm 24.8 - - - - E 37 46 20 25 1018.1 1017.9 -
22/09:30pm 24.9 - - - - E 39 52 21 28 1017.8 - -
22/09:26pm 25.0 - - - - E 37 44 20 24 1017.8 - -
22/09:20pm 24.7 - - - - ENE 37 46 20 25 1017.8 - -
22/09:12pm 24.8 - - - - SE 30 43 16 23 1017.8 - -
22/09:00pm 24.8 - - - - SE 37 46 20 25 1017.6 1017.4 -
22/08:33pm 24.7 - - - - ESE 35 50 19 27 1017.4 - -
22/08:30pm 24.7 - - - - ENE 37 50 20 27 1017.4 - -
22/08:29pm 24.9 - - - - NE 39 50 21 27 1017.4 - -
22/08:16pm 24.8 - - - - SE 30 48 16 26 1017.3 - -
22/08:06pm 24.9 - - - - SE 35 46 19 25 1017.1 - -
22/08:00pm 24.9 - - - - SE 33 46 18 25 1017.1 1016.9 -
22/07:30pm 24.6 - - - - E 35 46 19 25 1016.8 - -
22/07:27pm 24.7 - - - - ENE 35 46 19 25 1016.7 - -
22/07:26pm 24.6 - - - - NE 37 46 20 25 1016.7 - -
22/07:20pm 24.7 - - - - E 37 46 20 25 1016.6 - -
22/07:00pm 24.8 - - - - ENE 32 46 17 25 1016.2 1016.1 -
22/06:58pm 24.7 - - - - E 33 46 18 25 1016.3 - -
22/06:53pm 24.7 - - - - N 39 44 21 24 1016.2 - -
22/06:44pm 24.8 - - - - SE 35 44 19 24 1016.2 - -
22/06:40pm 24.8 - - - - NE 37 44 20 24 1016.1 - -
22/06:30pm 24.8 - - - - ESE 32 46 17 25 1016.1 - -
22/06:13pm 24.9 - - - - E 28 46 15 25 1016.1 - -
22/06:08pm 25.0 - - - - NNE 37 44 20 24 1016.0 - -
22/06:06pm 24.8 - - - - E 37 44 20 24 1016.0 - -
22/06:00pm 24.7 - - - - SE 35 46 19 25 1016.0 1015.7 -

Other Formats:

Comma delimited format used in spreadsheet applications
http://www.bom.gov.au/fwo/IDQ60801/IDQ60801.95288.axf

JavaScript Object Notation format (JSON) in row-major order
http://www.bom.gov.au/fwo/IDQ60801/IDQ60801.95288.json